Rock Hill, New York
Current Conditions -  °F | °C
As of 5:15 PM on Friday 24 Oct 2014 (Local Time) from KMSV Reporting Station
Clear Clear  
Wind Chill: 59°   Ceiling: Unl
Heat Index: 59°   Visibility: 10mi
Dew Point: 36°   Wind: 23mph
Humidity: 42%   Direction: 320°NW
Pressure: 29.81"   Gusts: 31mph
Location:  41.63°N, 74.6°W
Report Text: KMSV 242115Z AUTO 32020G27KT 10SM CLR 15/02 A2981 RMK AO1
Loading
Personal Weather Stations






























Interactive Weather Map
Tropical Storm Tracking
New forecast layout! Learn more

10-Day Weather Forecast

Advertisements
Track Severe Weather on mobile